Time;durP1;ratioP1;P1;durP2;ratioP2;P2;SDS_P1;SDS_P2;PMS_P1;PMS_P2;Temp;Humidity;BMP_temperature;BMP_pressure;BME280_temperature;BME280_humidity;BME280_pressure;Samples;Min_cycle;Max_cycle;Signal;HPM_P1;HPM_P2
2024/01/07 00:08:16;;;;;;;14.50;5.90;;;;;;;-3.40;100.00;100764.40;198599;1284;139013;-83
2024/01/07 00:13:17;;;;;;;10.60;4.40;;;;;;;-3.41;100.00;100760.05;218324;1287;140751;-84
2024/01/07 00:18:17;;;;;;;15.90;5.50;;;;;;;-3.40;100.00;100753.90;218743;1287;139024;-83
2024/01/07 00:23:18;;;;;;;10.70;3.90;;;;;;;-3.40;100.00;100759.83;218236;1287;140612;-83
2024/01/07 00:28:18;;;;;;;12.10;4.30;;;;;;;-3.41;100.00;100758.77;218741;1287;139312;-83
2024/01/07 00:33:19;;;;;;;12.60;4.30;;;;;;;-3.41;100.00;100760.11;218227;1287;139923;-83
2024/01/07 00:38:19;;;;;;;10.20;4.00;;;;;;;-3.38;100.00;100771.11;218753;1287;140166;-83
2024/01/07 00:43:20;;;;;;;9.10;3.50;;;;;;;-3.37;100.00;100781.34;218119;1287;139959;-83
2024/01/07 00:48:20;;;;;;;9.10;3.10;;;;;;;-3.39;100.00;100790.02;218730;1287;138720;-84
2024/01/07 00:53:20;;;;;;;11.10;3.60;;;;;;;-3.43;100.00;100789.21;218186;1287;139918;-83
2024/01/07 00:58:21;;;;;;;7.90;3.50;;;;;;;-3.46;100.00;100796.73;218695;1287;140939;-83
2024/01/07 01:03:21;;;;;;;10.60;3.80;;;;;;;-3.47;100.00;100798.71;217941;1287;140619;-83
2024/01/07 01:08:23;;;;;;;9.00;2.90;;;;;;;-3.48;100.00;100807.37;218546;1289;139373;-83
2024/01/07 01:13:23;;;;;;;10.00;3.90;;;;;;;-3.49;100.00;100818.25;218149;1288;139525;-83
2024/01/07 01:18:23;;;;;;;6.70;3.10;;;;;;;-3.51;100.00;100820.25;218333;1288;140641;-83
2024/01/07 01:23:24;;;;;;;9.80;3.70;;;;;;;-3.54;100.00;100825.41;217994;1288;140207;-83
2024/01/07 01:28:24;;;;;;;9.00;3.70;;;;;;;-3.60;100.00;100826.09;218554;1288;139043;-82
2024/01/07 01:33:25;;;;;;;10.50;4.80;;;;;;;-3.66;100.00;100829.28;217981;1288;139954;-83
2024/01/07 01:38:25;;;;;;;10.30;4.60;;;;;;;-3.67;100.00;100825.64;218553;1288;140037;-83
2024/01/07 01:43:27;;;;;;;11.70;4.30;;;;;;;-3.68;100.00;100832.69;218145;1288;140235;-83
2024/01/07 01:48:28;;;;;;;11.60;3.90;;;;;;;-3.66;100.00;100837.35;218592;1288;139144;-82
2024/01/07 01:53:29;;;;;;;12.40;4.00;;;;;;;-3.69;100.00;100840.16;218003;1288;139716;-82
2024/01/07 01:58:30;;;;;;;8.80;4.10;;;;;;;-3.72;100.00;100842.42;218422;1288;139231;-83
2024/01/07 02:03:30;;;;;;;8.20;3.70;;;;;;;-3.76;100.00;100841.36;217953;1290;139651;-83
2024/01/07 02:08:31;;;;;;;8.60;3.20;;;;;;;-3.79;100.00;100842.17;218359;1289;138936;-83
2024/01/07 02:13:32;;;;;;;10.40;3.60;;;;;;;-3.82;100.00;100838.15;218116;1290;139410;-82
2024/01/07 02:18:32;;;;;;;8.60;3.10;;;;;;;-3.84;100.00;100840.58;218590;1288;139740;-83
2024/01/07 02:23:32;;;;;;;8.60;3.60;;;;;;;-3.85;100.00;100843.42;217872;1288;139461;-83
2024/01/07 02:28:33;;;;;;;9.20;3.30;;;;;;;-3.88;99.96;100844.98;218592;1288;138875;-82
2024/01/07 02:33:34;;;;;;;8.10;3.00;;;;;;;-3.93;99.54;100849.63;217843;1288;140759;-82
2024/01/07 02:38:34;;;;;;;9.30;2.70;;;;;;;-3.97;99.51;100855.17;218561;1287;139958;-82
2024/01/07 02:43:35;;;;;;;12.00;3.70;;;;;;;-4.03;98.12;100861.20;217949;1290;140390;-82
2024/01/07 02:48:35;;;;;;;8.50;3.20;;;;;;;-4.13;97.09;100861.14;218515;1289;138877;-83
2024/01/07 02:53:35;;;;;;;6.70;3.00;;;;;;;-4.22;96.95;100861.70;217976;1288;140529;-82
2024/01/07 02:58:36;;;;;;;9.70;3.70;;;;;;;-4.31;97.14;100862.18;218536;1289;140260;-82
2024/01/07 03:03:37;;;;;;;7.70;3.00;;;;;;;-4.38;97.43;100866.36;218031;1288;140403;-83
2024/01/07 03:08:37;;;;;;;10.20;3.30;;;;;;;-4.45;97.99;100865.66;218402;1288;138849;-82
2024/01/07 03:13:40;;;;;;;8.50;3.10;;;;;;;-4.48;98.53;100863.52;217959;1288;139815;-82
2024/01/07 03:18:40;;;;;;;8.90;3.30;;;;;;;-4.52;98.84;100876.63;218342;1288;138960;-82
2024/01/07 03:23:41;;;;;;;7.30;3.00;;;;;;;-4.57;98.24;100875.43;217794;1288;139893;-82
2024/01/07 03:28:41;;;;;;;6.70;3.40;;;;;;;-4.67;98.51;100873.05;218555;1288;139411;-82
2024/01/07 03:33:42;;;;;;;10.30;3.50;;;;;;;-4.76;97.63;100874.48;218047;1290;140400;-81
2024/01/07 03:38:43;;;;;;;7.50;2.70;;;;;;;-4.84;97.85;100879.58;218540;1290;139041;-82
2024/01/07 03:43:44;;;;;;;8.10;2.80;;;;;;;-4.89;98.36;100877.84;218115;1288;139506;-81
2024/01/07 03:48:44;;;;;;;10.40;3.10;;;;;;;-4.93;98.63;100880.35;218372;1288;140122;-82
2024/01/07 03:53:45;;;;;;;12.70;4.20;;;;;;;-4.98;98.78;100885.00;217997;1288;139982;-82
2024/01/07 03:58:45;;;;;;;8.70;3.50;;;;;;;-5.03;99.09;100883.65;218357;1288;139180;-82
2024/01/07 04:03:45;;;;;;;7.80;3.20;;;;;;;-5.08;98.75;100884.33;217775;1290;139397;-82
2024/01/07 04:08:46;;;;;;;9.80;3.80;;;;;;;-5.11;99.17;100889.48;218367;1289;139085;-82
2024/01/07 04:13:46;;;;;;;9.30;3.80;;;;;;;-5.14;99.32;100892.69;218028;1288;141026;-82
2024/01/07 04:18:47;;;;;;;7.60;3.30;;;;;;;-5.16;99.22;100898.52;218644;1288;96054;-82
2024/01/07 04:23:47;;;;;;;12.20;4.70;;;;;;;-5.19;98.52;100904.04;218038;1288;139866;-81
2024/01/07 04:28:48;;;;;;;12.10;3.50;;;;;;;-5.22;99.29;100907.14;218443;1287;139454;-82
2024/01/07 04:33:49;;;;;;;4.80;2.30;;;;;;;-5.24;99.37;100904.48;218051;1288;140433;-81
2024/01/07 04:38:49;;;;;;;8.50;3.50;;;;;;;-5.25;99.57;100905.67;218543;1288;139211;-81
2024/01/07 04:43:50;;;;;;;8.20;3.60;;;;;;;-5.28;99.91;100910.17;218015;1288;141777;-82
2024/01/07 04:48:50;;;;;;;9.10;3.80;;;;;;;-5.31;99.94;100922.60;218598;1288;96002;-81
2024/01/07 04:53:51;;;;;;;10.10;4.10;;;;;;;-5.34;99.88;100930.36;217996;1288;140013;-81
2024/01/07 04:58:51;;;;;;;10.00;3.90;;;;;;;-5.37;100.00;100939.52;218535;1288;139858;-81
2024/01/07 05:03:51;;;;;;;10.80;4.30;;;;;;;-5.40;100.00;100936.88;217989;1288;140390;-81
2024/01/07 05:08:52;;;;;;;11.20;4.50;;;;;;;-5.43;100.00;100942.23;218478;1288;139973;-81
2024/01/07 05:13:52;;;;;;;12.50;4.70;;;;;;;-5.47;100.00;100945.95;218002;1288;140431;-81
2024/01/07 05:18:53;;;;;;;12.00;5.10;;;;;;;-5.53;100.00;100946.71;218516;1288;96001;-81
2024/01/07 05:23:54;;;;;;;10.30;4.90;;;;;;;-5.56;100.00;100959.66;217863;1288;140308;-82
2024/01/07 05:28:54;;;;;;;9.10;4.70;;;;;;;-5.60;100.00;100965.98;218520;1288;139833;-81
2024/01/07 05:33:55;;;;;;;16.60;6.50;;;;;;;-5.67;100.00;100964.84;217978;1287;140560;-81
2024/01/07 05:38:56;;;;;;;12.60;5.20;;;;;;;-5.74;100.00;100973.50;218301;1288;140190;-81
2024/01/07 05:43:56;;;;;;;15.70;6.10;;;;;;;-5.78;100.00;100979.73;217879;1288;140063;-81
2024/01/07 05:48:57;;;;;;;13.10;5.00;;;;;;;-5.83;100.00;100978.43;218590;1288;95988;-81
2024/01/07 05:53:57;;;;;;;16.10;5.70;;;;;;;-5.89;100.00;100986.41;217821;1288;140456;-81
2024/01/07 05:58:57;;;;;;;13.40;5.70;;;;;;;-5.94;100.00;100993.02;218507;1288;141165;-81
2024/01/07 06:03:58;;;;;;;18.30;5.80;;;;;;;-5.97;100.00;100997.67;217901;1288;140963;-79
2024/01/07 06:08:59;;;;;;;15.80;5.20;;;;;;;-5.99;100.00;101001.61;218464;1290;140525;-80
2024/01/07 06:13:59;;;;;;;16.40;5.80;;;;;;;-6.01;100.00;101005.30;217936;1288;139983;-81
2024/01/07 06:18:59;;;;;;;16.30;5.50;;;;;;;-6.08;100.00;101006.73;218549;1288;110467;-81
2024/01/07 06:24:00;;;;;;;15.40;7.30;;;;;;;-6.13;100.00;101012.79;217994;1288;141139;-81
2024/01/07 06:29:01;;;;;;;13.80;7.20;;;;;;;-6.18;100.00;101009.09;218363;1288;140035;-81
2024/01/07 06:34:01;;;;;;;21.60;8.90;;;;;;;-6.19;100.00;101019.27;217950;1288;140314;-81
2024/01/07 06:39:05;;;;;;;18.60;7.50;;;;;;;-6.26;100.00;101019.02;218422;1288;140255;-81
2024/01/07 06:44:05;;;;;;;21.90;8.60;;;;;;;-6.30;100.00;101024.89;217776;1290;140431;-79
2024/01/07 06:49:06;;;;;;;15.80;6.80;;;;;;;-6.31;100.00;101030.87;218425;1288;97069;-81
2024/01/07 06:54:07;;;;;;;14.30;5.60;;;;;;;-6.33;100.00;101034.76;217941;1288;140149;-81
2024/01/07 06:59:08;;;;;;;13.30;5.90;;;;;;;-6.37;100.00;101029.20;218502;1289;139289;-80
2024/01/07 07:04:08;;;;;;;14.80;6.40;;;;;;;-6.39;100.00;101033.04;217941;1288;140346;-81
2024/01/07 07:09:11;;;;;;;15.00;7.20;;;;;;;-6.39;100.00;101045.57;218461;1288;139393;-81
2024/01/07 07:14:12;;;;;;;18.90;8.40;;;;;;;-6.40;100.00;101051.17;217936;1288;140290;-81
2024/01/07 07:19:14;;;;;;;20.00;7.20;;;;;;;-6.41;100.00;101049.40;218569;1291;96167;-81
2024/01/07 07:24:15;;;;;;;20.30;7.60;;;;;;;-6.38;100.00;101051.73;217922;1288;141081;-81
2024/01/07 07:29:15;;;;;;;19.60;7.80;;;;;;;-6.40;100.00;101056.10;218446;1289;139749;-81
2024/01/07 07:34:16;;;;;;;14.50;6.90;;;;;;;-6.36;100.00;101049.67;217910;1289;141423;-81
2024/01/07 07:39:16;;;;;;;15.80;7.00;;;;;;;-6.32;100.00;101051.73;218260;1288;140455;-81
2024/01/07 07:44:17;;;;;;;17.50;7.30;;;;;;;-6.28;100.00;101053.02;217881;1288;141175;-80
2024/01/07 07:49:18;;;;;;;15.00;6.50;;;;;;;-6.28;100.00;101059.56;218584;1288;96093;-79
2024/01/07 07:54:19;;;;;;;17.10;7.90;;;;;;;-6.22;100.00;101068.30;217967;1288;140875;-81
2024/01/07 07:59:19;;;;;;;15.60;7.10;;;;;;;-6.17;100.00;101067.61;218294;1288;140294;-82
2024/01/07 08:04:20;;;;;;;14.30;6.20;;;;;;;-6.11;100.00;101066.01;217885;1292;141252;-81
2024/01/07 08:09:20;;;;;;;13.30;6.10;;;;;;;-6.05;100.00;101071.42;218431;1291;139762;-82
2024/01/07 08:14:21;;;;;;;14.30;6.60;;;;;;;-5.96;100.00;101069.70;217966;1289;140864;-81
2024/01/07 08:19:21;;;;;;;14.20;6.00;;;;;;;-5.88;100.00;101074.45;218423;1289;96200;-81
2024/01/07 08:24:22;;;;;;;13.30;5.50;;;;;;;-5.78;100.00;101074.08;217891;1289;140578;-81
2024/01/07 08:29:22;;;;;;;13.80;6.20;;;;;;;-5.69;100.00;101076.36;218518;1288;139185;-81
2024/01/07 08:34:23;;;;;;;14.10;6.20;;;;;;;-5.63;100.00;101084.45;217937;1288;141087;-81
2024/01/07 08:39:25;;;;;;;13.80;5.50;;;;;;;-5.57;100.00;101092.27;218423;1288;139523;-82
2024/01/07 08:44:26;;;;;;;15.60;5.30;;;;;;;-5.49;100.00;101090.91;217908;1288;140479;-81
2024/01/07 08:49:28;;;;;;;10.50;5.00;;;;;;;-5.45;100.00;101094.05;218632;1288;96485;-82
2024/01/07 08:54:28;;;;;;;9.10;4.00;;;;;;;-5.41;100.00;101095.33;217664;1290;140858;-81
2024/01/07 08:59:29;;;;;;;10.60;4.70;;;;;;;-5.39;100.00;101105.80;218477;1289;139773;-82
2024/01/07 09:04:29;;;;;;;13.60;4.90;;;;;;;-5.42;100.00;101105.98;217959;1288;141255;-81
2024/01/07 09:09:30;;;;;;;13.30;6.00;;;;;;;-5.41;100.00;101111.19;218524;1288;139513;-82
2024/01/07 09:14:30;;;;;;;11.10;4.40;;;;;;;-5.39;100.00;101115.39;217696;1288;140771;-82
2024/01/07 09:19:31;;;;;;;14.70;5.30;;;;;;;-5.36;100.00;101116.45;218578;1289;97142;-82
2024/01/07 09:24:31;;;;;;;14.10;5.20;;;;;;;-5.35;100.00;101113.76;217872;1288;140612;-82
2024/01/07 09:29:32;;;;;;;11.60;4.70;;;;;;;-5.33;100.00;101116.14;218366;1292;139759;-83
2024/01/07 09:34:32;;;;;;;16.20;6.20;;;;;;;-5.33;100.00;101116.23;217727;1289;140382;-82
2024/01/07 09:39:33;;;;;;;14.80;5.80;;;;;;;-5.29;100.00;101118.21;218377;1289;139693;-83
2024/01/07 09:44:34;;;;;;;12.30;5.70;;;;;;;-5.23;99.97;101124.86;217792;1288;140431;-82
2024/01/07 09:49:34;;;;;;;13.10;5.40;;;;;;;-5.19;100.00;101123.28;218330;1289;271490;-82
2024/01/07 09:54:39;;;;;;;14.20;6.30;;;;;;;-5.16;99.76;101124.00;217879;1289;140958;-82
2024/01/07 09:59:39;;;;;;;19.80;6.30;;;;;;;-5.10;100.00;101130.38;218242;1291;139590;-81
2024/01/07 10:04:40;;;;;;;17.40;5.90;;;;;;;-5.03;99.98;101121.35;217943;1289;140104;-82
2024/01/07 10:09:44;;;;;;;12.20;5.90;;;;;;;-4.98;99.73;101121.98;218452;1288;139627;-82
2024/01/07 10:14:45;;;;;;;12.20;6.00;;;;;;;-4.94;99.50;101124.59;217888;1289;140350;-82
2024/01/07 10:19:46;;;;;;;16.80;7.00;;;;;;;-4.90;98.25;101122.52;218314;1289;140175;-82
2024/01/07 10:24:48;;;;;;;14.60;5.90;;;;;;;-4.84;97.21;101122.08;218274;1289;140425;-83
2024/01/07 10:29:50;;;;;;;11.30;4.90;;;;;;;-4.78;97.21;101121.58;217946;1288;139518;-84
2024/01/07 10:35:01;;;;;;;12.80;4.90;;;;;;;-4.79;95.07;101115.77;218187;1290;139644;-83
2024/01/07 10:40:03;;;;;;;10.80;4.50;;;;;;;-4.80;93.85;101122.16;217818;1288;140780;-82
2024/01/07 10:45:07;;;;;;;12.80;5.60;;;;;;;-4.83;91.93;101117.94;218152;1288;139235;-83
2024/01/07 10:50:11;;;;;;;11.00;5.40;;;;;;;-4.85;91.42;101119.39;217664;1288;140258;-83
2024/01/07 10:55:14;;;;;;;13.70;5.30;;;;;;;-4.89;92.30;101121.89;218530;1289;96215;-83
2024/01/07 11:00:19;;;;;;;20.20;6.70;;;;;;;-4.94;91.01;101120.02;217693;1292;141174;-83
2024/01/07 11:05:43;;;;;;;14.50;6.20;;;;;;;-4.96;91.76;101124.58;218239;1288;139565;-83
2024/01/07 11:10:48;;;;;;;13.70;5.40;;;;;;;-5.01;90.40;101122.83;217762;1288;140728;-83
2024/01/07 11:15:52;;;;;;;14.00;5.70;;;;;;;-5.04;89.86;101126.94;218397;1288;140015;-83
2024/01/07 11:20:53;;;;;;;14.80;5.40;;;;;;;-5.11;89.14;101125.98;217938;1288;140095;-83
2024/01/07 11:25:54;;;;;;;15.90;6.10;;;;;;;-5.23;88.21;101124.81;218368;1288;139338;-81
2024/01/07 11:30:57;;;;;;;16.30;5.80;;;;;;;-5.27;88.83;101123.02;217822;1289;140661;-81
2024/01/07 11:36:03;;;;;;;20.60;6.60;;;;;;;-5.33;89.01;101121.98;218454;1288;139742;-81
2024/01/07 11:41:05;;;;;;;19.50;7.10;;;;;;;-5.36;89.03;101127.86;217819;1292;141092;-82
2024/01/07 11:46:08;;;;;;;40.70;12.40;;;;;;;-5.44;88.65;101124.20;218395;1288;139409;-82
2024/01/07 11:51:09;;;;;;;50.20;14.10;;;;;;;-5.44;90.66;101122.05;217842;1289;141232;-83
2024/01/07 11:56:09;;;;;;;23.80;8.50;;;;;;;-5.38;91.00;101121.23;218314;1288;139611;-82
2024/01/07 12:01:10;;;;;;;23.40;10.80;;;;;;;-5.44;89.71;101131.33;217913;1288;141145;-82
2024/01/07 12:06:13;;;;;;;20.80;9.00;;;;;;;-5.48;89.93;101133.38;218299;1288;139686;-83
2024/01/07 12:11:15;;;;;;;39.20;15.20;;;;;;;-5.49;90.59;101128.66;217802;1290;140483;-82
2024/01/07 12:16:15;;;;;;;25.80;9.40;;;;;;;-5.50;89.18;101128.39;218450;1289;139421;-82
2024/01/07 12:21:21;;;;;;;22.00;7.60;;;;;;;-5.54;87.53;101130.55;217806;1289;140528;-81
2024/01/07 12:26:26;;;;;;;18.60;7.00;;;;;;;-5.63;86.40;101129.22;218120;1288;139368;-81
2024/01/07 12:31:29;;;;;;;18.90;7.70;;;;;;;-5.70;85.91;101134.84;217917;1288;140413;-81
2024/01/07 12:36:33;;;;;;;16.30;7.40;;;;;;;-5.77;82.81;101135.38;218294;1291;139287;-81
2024/01/07 12:41:34;;;;;;;9.60;4.50;;;;;;;-5.87;82.27;101140.55;217719;1288;140186;-81
2024/01/07 12:46:34;;;;;;;17.00;7.00;;;;;;;-5.96;80.79;101142.91;218381;1288;139220;-81
2024/01/07 12:51:35;;;;;;;17.00;6.60;;;;;;;-6.04;80.65;101147.14;217819;1289;140545;-81
2024/01/07 12:56:36;;;;;;;17.30;6.70;;;;;;;-6.16;81.24;101144.07;218445;1288;139461;-80
2024/01/07 13:01:36;;;;;;;18.10;6.90;;;;;;;-6.22;81.48;101146.52;217884;1289;142662;-81
2024/01/07 13:06:37;;;;;;;17.20;6.20;;;;;;;-6.29;80.36;101149.31;218306;1288;139262;-81
2024/01/07 13:11:38;;;;;;;19.90;6.90;;;;;;;-6.36;80.51;101153.52;217845;1288;141093;-82
2024/01/07 13:16:38;;;;;;;16.80;6.80;;;;;;;-6.42;81.10;101163.45;218275;1288;139282;-80
2024/01/07 13:21:39;;;;;;;23.00;7.60;;;;;;;-6.46;82.11;101171.95;217893;1287;140077;-81
2024/01/07 13:26:41;;;;;;;17.20;7.90;;;;;;;-6.53;81.58;101177.98;218265;1288;140024;-81
2024/01/07 13:31:42;;;;;;;17.80;7.70;;;;;;;-6.60;80.54;101181.94;217815;1288;141777;-81
2024/01/07 13:36:43;;;;;;;17.50;7.30;;;;;;;-6.68;81.65;101190.08;218316;1288;139948;-82
2024/01/07 13:41:44;;;;;;;21.90;8.50;;;;;;;-6.70;82.89;101185.11;217807;1289;140787;-82
2024/01/07 13:46:47;;;;;;;28.90;11.70;;;;;;;-6.71;83.39;101188.67;218409;1288;139994;-82
2024/01/07 13:51:48;;;;;;;22.10;8.60;;;;;;;-6.75;82.47;101188.79;217738;1290;140965;-82
2024/01/07 13:56:50;;;;;;;22.80;8.40;;;;;;;-6.85;82.17;101190.30;218358;1288;139451;-81
2024/01/07 14:01:51;;;;;;;17.00;7.90;;;;;;;-6.89;83.36;101197.35;217779;1289;140349;-81
2024/01/07 14:06:57;;;;;;;15.10;7.90;;;;;;;-6.91;84.64;101196.15;218409;1288;96038;-81
2024/01/07 14:11:58;;;;;;;21.80;8.60;;;;;;;-6.93;85.18;101196.21;217816;1288;140829;-82
2024/01/07 14:16:59;;;;;;;23.90;8.40;;;;;;;-6.98;85.50;101205.06;218444;1288;140275;-81
2024/01/07 14:22:00;;;;;;;17.70;7.70;;;;;;;-7.02;85.80;101215.00;217882;1288;140608;-81
2024/01/07 14:27:01;;;;;;;18.00;7.90;;;;;;;-7.09;85.29;101221.48;218439;1289;139996;-81
2024/01/07 14:32:02;;;;;;;23.20;9.50;;;;;;;-7.12;86.27;101226.23;217874;1288;141285;-82
2024/01/07 14:37:05;;;;;;;20.00;8.70;;;;;;;-7.15;86.60;101228.11;218542;1288;96108;-81
2024/01/07 14:42:07;;;;;;;17.90;8.10;;;;;;;-7.18;86.57;101218.54;217443;1288;140297;-82
2024/01/07 14:47:08;;;;;;;23.30;9.80;;;;;;;-7.26;86.51;101214.87;218448;1289;141260;-81
2024/01/07 14:52:08;;;;;;;22.80;8.60;;;;;;;-7.29;86.78;101218.89;217928;1288;140566;-81
2024/01/07 14:57:12;;;;;;;23.90;11.70;;;;;;;-7.36;86.83;101214.73;218148;1288;139279;-81
2024/01/07 15:02:12;;;;;;;59.00;19.30;;;;;;;-7.38;87.94;101217.70;217247;1289;141991;-82
2024/01/07 15:07:17;;;;;;;67.00;20.00;;;;;;;-7.40;87.86;101217.71;218326;1289;97285;-82
2024/01/07 15:12:20;;;;;;;56.00;16.10;;;;;;;-7.47;87.51;101224.75;217575;1288;141131;-81
2024/01/07 15:17:23;;;;;;;36.70;12.10;;;;;;;-7.57;87.17;101227.02;218172;1288;139248;-80
2024/01/07 15:22:23;;;;;;;61.00;16.60;;;;;;;-7.65;86.89;101234.35;217561;1288;143527;-80
2024/01/07 15:27:24;;;;;;;34.40;10.70;;;;;;;-7.72;87.13;101241.23;218247;1288;140116;-80
2024/01/07 15:32:26;;;;;;;105.30;26.30;;;;;;;-7.76;87.40;101249.10;217729;1288;140875;-80
2024/01/07 15:37:29;;;;;;;59.60;17.20;;;;;;;-7.80;87.24;101254.38;218475;1288;96650;-80
2024/01/07 15:42:30;;;;;;;46.00;14.90;;;;;;;-7.84;87.92;101255.91;217498;1287;140652;-80
2024/01/07 15:47:34;;;;;;;49.60;19.00;;;;;;;-7.86;88.41;101259.86;218292;1289;139966;-80
2024/01/07 15:52:36;;;;;;;66.60;19.90;;;;;;;-7.86;88.56;101265.94;217588;1288;140814;-81
2024/01/07 15:57:36;;;;;;;47.10;15.30;;;;;;;-7.92;88.38;101267.46;218295;1289;140465;-81
2024/01/07 16:02:37;;;;;;;40.70;14.70;;;;;;;-7.97;89.03;101271.64;217843;1288;140491;-81
2024/01/07 16:07:37;;;;;;;34.90;13.20;;;;;;;-8.01;89.11;101279.09;218516;1288;96246;-82
2024/01/07 16:12:38;;;;;;;31.60;12.30;;;;;;;-8.03;89.53;101284.53;217854;1288;140350;-82
2024/01/07 16:17:42;;;;;;;23.00;9.60;;;;;;;-8.11;89.33;101291.00;218380;1290;140381;-80
2024/01/07 16:22:43;;;;;;;35.60;12.90;;;;;;;-8.17;90.12;101292.90;217731;1288;140778;-81
2024/01/07 16:28:06;;;;;;;52.00;18.50;;;;;;;-8.21;90.28;101291.45;218208;1288;139864;-81
2024/01/07 16:33:12;;;;;;;32.90;13.10;;;;;;;-8.24;90.67;101294.52;217699;1287;141280;-80
2024/01/07 16:38:21;;;;;;;33.20;12.80;;;;;;;-8.31;90.56;101303.66;218050;1288;140461;-81
2024/01/07 16:43:29;;;;;;;38.30;13.20;;;;;;;-8.36;91.03;101306.59;217633;1288;141250;-81
2024/01/07 16:48:32;;;;;;;24.70;9.90;;;;;;;-8.42;91.21;101315.10;218310;1288;140189;-81
2024/01/07 16:53:32;;;;;;;50.00;16.90;;;;;;;-8.43;92.21;101310.73;217493;1289;140829;-82
2024/01/07 16:58:33;;;;;;;54.60;18.00;;;;;;;-8.44;92.20;101317.06;218350;1288;139670;-80
2024/01/07 17:03:33;;;;;;;58.40;18.90;;;;;;;-8.48;92.58;101322.31;217611;1288;140499;-81
2024/01/07 17:08:43;;;;;;;22.60;10.50;;;;;;;-8.49;92.95;101335.53;218243;1288;139616;-83
2024/01/07 17:13:44;;;;;;;40.50;13.40;;;;;;;-8.55;93.55;101346.07;217798;1291;140210;-82
2024/01/07 17:18:44;;;;;;;40.60;13.70;;;;;;;-8.59;94.12;101351.83;218199;1288;139611;-82
2024/01/07 17:23:50;;;;;;;38.10;12.90;;;;;;;-8.60;94.74;101358.46;217690;1288;140426;-81
2024/01/07 17:28:51;;;;;;;29.30;11.50;;;;;;;-8.63;94.48;101361.75;218353;1288;140607;-81
2024/01/07 17:33:51;;;;;;;20.90;9.70;;;;;;;-8.63;94.99;101370.95;217882;1289;141539;-82
2024/01/07 17:38:52;;;;;;;27.80;11.20;;;;;;;-8.69;95.03;101374.16;218332;1288;139644;-82
2024/01/07 17:43:52;;;;;;;39.30;13.80;;;;;;;-8.71;95.11;101380.23;217995;1288;140615;-82
2024/01/07 17:48:53;;;;;;;23.20;11.00;;;;;;;-8.65;96.15;101381.30;218463;1288;139190;-81
2024/01/07 17:53:53;;;;;;;31.30;12.70;;;;;;;-8.58;96.60;101386.87;217903;1290;141171;-82
2024/01/07 17:58:53;;;;;;;40.40;14.30;;;;;;;-8.52;96.83;101386.58;218361;1289;139472;-81
2024/01/07 18:03:54;;;;;;;19.00;9.20;;;;;;;-8.49;96.82;101385.59;217900;1288;140521;-81
2024/01/07 18:08:57;;;;;;;25.80;11.80;;;;;;;-8.49;96.93;101389.45;218409;1288;139202;-82
2024/01/07 18:13:58;;;;;;;26.90;10.60;;;;;;;-8.48;97.52;101393.13;217763;1288;140984;-82
2024/01/07 18:18:59;;;;;;;24.70;10.90;;;;;;;-8.52;96.97;101400.50;218265;1288;139537;-81
2024/01/07 18:24:00;;;;;;;30.10;12.10;;;;;;;-8.52;97.16;101403.34;217867;1288;140227;-81
2024/01/07 18:29:00;;;;;;;25.80;10.60;;;;;;;-8.46;97.42;101412.02;218368;1292;139964;-82
2024/01/07 18:34:01;;;;;;;28.10;12.20;;;;;;;-8.46;96.70;101413.64;217665;1288;140364;-82
2024/01/07 18:39:03;;;;;;;34.70;14.70;;;;;;;-8.48;96.97;101414.28;218318;1289;142519;-82
2024/01/07 18:44:05;;;;;;;55.00;16.40;;;;;;;-8.50;97.19;101419.19;217430;1288;142029;-82
2024/01/07 18:49:06;;;;;;;32.30;12.00;;;;;;;-8.50;97.06;101418.34;218239;1288;96521;-81
2024/01/07 18:54:07;;;;;;;19.50;8.70;;;;;;;-8.46;97.62;101426.67;217922;1288;140364;-81
2024/01/07 18:59:07;;;;;;;27.60;11.90;;;;;;;-8.42;98.03;101426.84;218441;1288;139593;-81
2024/01/07 19:04:08;;;;;;;18.30;8.70;;;;;;;-8.37;98.19;101431.15;217761;1290;140898;-82
2024/01/07 19:09:09;;;;;;;22.30;10.00;;;;;;;-8.29;98.71;101435.66;218271;1290;140681;-81
2024/01/07 19:14:11;;;;;;;33.70;13.80;;;;;;;-8.23;98.58;101438.88;217949;1290;140425;-81
2024/01/07 19:19:12;;;;;;;28.60;10.40;;;;;;;-8.20;98.58;101445.36;218581;1288;95926;-81
2024/01/07 19:24:13;;;;;;;23.60;10.10;;;;;;;-8.21;98.44;101448.96;217975;1289;140605;-81
2024/01/07 19:29:13;;;;;;;30.50;11.40;;;;;;;-8.22;98.42;101453.95;218462;1288;139578;-81
2024/01/07 19:34:14;;;;;;;22.90;10.20;;;;;;;-8.24;98.10;101459.16;217806;1288;140719;-81
2024/01/07 19:39:16;;;;;;;24.00;10.30;;;;;;;-8.28;97.75;101468.09;218470;1289;139712;-81
2024/01/07 19:44:17;;;;;;;25.50;11.60;;;;;;;-8.28;97.72;101468.88;217953;1288;140806;-80
2024/01/07 19:49:18;;;;;;;21.40;11.00;;;;;;;-8.28;97.70;101471.96;218360;1288;96824;-81
2024/01/07 19:54:20;;;;;;;20.60;8.90;;;;;;;-8.30;97.76;101477.48;217824;1288;140325;-81
2024/01/07 19:59:23;;;;;;;22.80;9.80;;;;;;;-8.33;97.58;101483.23;218493;1288;139776;-83
2024/01/07 20:04:23;;;;;;;22.00;10.60;;;;;;;-8.39;97.13;101488.79;217926;1288;140199;-82
2024/01/07 20:09:24;;;;;;;24.10;11.00;;;;;;;-8.41;97.35;101491.83;218327;1289;140424;-82
2024/01/07 20:14:24;;;;;;;18.40;9.60;;;;;;;-8.36;97.78;101487.14;218014;1289;141215;-82
2024/01/07 20:19:25;;;;;;;21.50;10.20;;;;;;;-8.39;97.56;101492.52;218611;1288;96070;-82
2024/01/07 20:24:25;;;;;;;23.30;11.30;;;;;;;-8.38;98.18;101495.63;217962;1288;140662;-82
2024/01/07 20:29:27;;;;;;;24.20;10.30;;;;;;;-8.40;97.77;101498.09;218323;1288;139891;-82
2024/01/07 20:34:28;;;;;;;31.90;13.70;;;;;;;-8.48;97.99;101503.54;217927;1288;142403;-81
2024/01/07 20:39:29;;;;;;;30.70;11.50;;;;;;;-8.56;97.20;101512.02;218123;1291;139481;-81
2024/01/07 20:44:29;;;;;;;26.30;12.30;;;;;;;-8.65;96.98;101516.04;217734;1289;140021;-81
2024/01/07 20:49:31;;;;;;;23.70;10.30;;;;;;;-8.74;96.98;101518.29;218601;1290;96094;-81
2024/01/07 20:54:32;;;;;;;24.00;11.90;;;;;;;-8.79;96.84;101524.17;217962;1288;140105;-81
2024/01/07 20:59:33;;;;;;;30.10;12.00;;;;;;;-8.84;96.35;101530.61;218488;1288;139930;-81
2024/01/07 21:04:33;;;;;;;26.10;10.90;;;;;;;-8.96;95.13;101536.53;217805;1292;141800;-81
2024/01/07 21:09:34;;;;;;;28.40;11.80;;;;;;;-9.04;95.89;101540.52;218341;1289;139377;-81
2024/01/07 21:14:34;;;;;;;27.10;11.20;;;;;;;-9.04;96.03;101538.92;217903;1288;140104;-81
2024/01/07 21:19:35;;;;;;;24.90;11.20;;;;;;;-9.06;95.86;101538.05;218498;1288;96178;-82
2024/01/07 21:24:45;;;;;;;34.70;12.90;;;;;;;-9.04;96.73;101535.03;217922;1288;140396;-82
2024/01/07 21:29:48;;;;;;;28.40;11.40;;;;;;;-9.03;96.80;101541.08;218130;1288;139471;-81
2024/01/07 21:34:48;;;;;;;30.90;13.90;;;;;;;-9.04;96.65;101550.22;218153;1288;140594;-81
2024/01/07 21:39:48;;;;;;;29.60;13.00;;;;;;;-9.13;97.28;101549.16;218196;1288;139635;-80
2024/01/07 21:44:49;;;;;;;28.30;12.50;;;;;;;-9.10;97.84;101550.18;218256;1289;141255;-79
2024/01/07 21:49:51;;;;;;;24.50;11.90;;;;;;;-9.08;97.81;101552.46;217999;1289;140226;-80
2024/01/07 21:54:52;;;;;;;30.80;12.20;;;;;;;-9.10;98.53;101550.93;218018;1290;139372;-82
2024/01/07 21:59:54;;;;;;;26.90;10.70;;;;;;;-9.13;98.64;101554.44;217843;1288;140663;-80
2024/01/07 22:04:54;;;;;;;27.90;12.40;;;;;;;-9.13;98.84;101562.11;218236;1288;139708;-81
2024/01/07 22:09:55;;;;;;;25.80;10.60;;;;;;;-9.17;98.49;101573.73;217947;1289;140421;-81
2024/01/07 22:14:55;;;;;;;31.90;13.30;;;;;;;-9.20;98.43;101584.09;218512;1288;139524;-81
2024/01/07 22:19:56;;;;;;;29.70;12.80;;;;;;;-9.21;98.08;101584.92;217875;1288;141564;-82
2024/01/07 22:24:56;;;;;;;27.10;11.60;;;;;;;-9.31;97.70;101592.02;218436;1289;139511;-81
2024/01/07 22:29:56;;;;;;;27.90;11.10;;;;;;;-9.31;98.13;101598.96;217877;1290;140897;-82
2024/01/07 22:34:57;;;;;;;27.60;11.00;;;;;;;-9.36;96.78;101603.17;218489;1290;140084;-80